Time,TemperatureF,DewpointF,PressureIn,WindDirection,WindDirectionDegrees,WindSpeedMPH,WindSpeedGustMPH,Humidity,HourlyPrecipIn,Conditions,Clouds,dailyrainin,SoftwareType,DateUTC
2013-03-10 00:09:00,41.2,39.0,30.25,SSW,207,0.0,1.0,92,0.00,,,0.00,weatherlink.com 1.10,2013-03-10 08:09:00,
2013-03-10 00:24:00,41.0,39.0,30.25,SSW,207,0.0,1.0,91,0.00,,,0.00,weatherlink.com 1.10,2013-03-10 08:24:00,
2013-03-10 00:39:00,41.3,39.0,30.26,SW,214,0.0,0.0,90,0.00,,,0.00,weatherlink.com 1.10,2013-03-10 08:39:00,
2013-03-10 00:54:00,41.0,38.0,30.27,SW,214,0.0,0.0,90,0.00,,,0.00,weatherlink.com 1.10,2013-03-10 08:54:00,
2013-03-10 01:09:00,40.7,39.0,30.27,SW,214,0.0,0.0,92,0.00,,,0.00,weatherlink.com 1.10,2013-03-10 09:09:00,
2013-03-10 01:24:00,40.7,38.0,30.27,SW,214,0.0,0.0,91,0.00,,,0.00,weatherlink.com 1.10,2013-03-10 09:24:00,
2013-03-10 01:39:00,40.4,38.0,30.27,SW,214,0.0,0.0,91,0.00,,,0.00,weatherlink.com 1.10,2013-03-10 09:39:00,
2013-03-10 01:54:00,40.0,38.0,30.27,SW,214,0.0,0.0,92,0.00,,,0.00,weatherlink.com 1.10,2013-03-10 09:54:00,
2013-03-10 03:09:00,39.7,38.0,30.26,SW,214,0.0,0.0,92,0.00,,,0.00,weatherlink.com 1.10,2013-03-10 10:09:00,
2013-03-10 03:24:00,39.7,37.0,30.26,SW,214,0.0,0.0,91,0.00,,,0.00,weatherlink.com 1.10,2013-03-10 10:24:00,
2013-03-10 03:39:00,39.1,37.0,30.26,SW,214,0.0,1.0,92,0.00,,,0.00,weatherlink.com 1.10,2013-03-10 10:39:00,
2013-03-10 03:54:00,38.5,36.0,30.26,SW,214,0.0,0.0,92,0.00,,,0.00,weatherlink.com 1.10,2013-03-10 10:54:00,
2013-03-10 04:09:00,38.0,36.0,30.26,SW,214,0.0,0.0,93,0.00,,,0.00,weatherlink.com 1.10,2013-03-10 11:09:00,
2013-03-10 04:24:00,37.7,36.0,30.26,SW,214,0.0,0.0,93,0.00,,,0.00,weatherlink.com 1.10,2013-03-10 11:24:00,
2013-03-10 04:39:00,37.6,36.0,30.26,SW,214,0.0,0.0,94,0.00,,,0.00,weatherlink.com 1.10,2013-03-10 11:39:00,
2013-03-10 04:54:00,37.3,36.0,30.26,SW,214,0.0,0.0,94,0.00,,,0.00,weatherlink.com 1.10,2013-03-10 11:54:00,
2013-03-10 05:09:00,36.8,35.0,30.26,SW,214,0.0,0.0,94,0.00,,,0.00,weatherlink.com 1.10,2013-03-10 12:09:00,
2013-03-10 05:24:00,37.3,36.0,30.26,SW,214,0.0,1.0,95,0.00,,,0.00,weatherlink.com 1.10,2013-03-10 12:24:00,
2013-03-10 05:39:00,37.1,36.0,30.27,SW,214,0.0,0.0,94,0.00,,,0.00,weatherlink.com 1.10,2013-03-10 12:39:00,
2013-03-10 05:54:00,37.1,36.0,30.27,SW,214,0.0,0.0,94,0.00,,,0.00,weatherlink.com 1.10,2013-03-10 12:54:00,
2013-03-10 06:09:00,37.5,36.0,30.27,SW,214,0.0,0.0,95,0.00,,,0.00,weatherlink.com 1.10,2013-03-10 13:09:00,
2013-03-10 06:24:00,37.0,36.0,30.28,SW,214,0.0,0.0,94,0.00,,,0.00,weatherlink.com 1.10,2013-03-10 13:24:00,
2013-03-10 06:39:00,37.2,36.0,30.27,SW,214,0.0,0.0,95,0.00,,,0.00,weatherlink.com 1.10,2013-03-10 13:39:00,
2013-03-10 06:54:00,36.8,36.0,30.27,SW,214,0.0,0.0,95,0.00,,,0.00,weatherlink.com 1.10,2013-03-10 13:54:00,
2013-03-10 07:09:00,36.4,35.0,30.28,SW,214,0.0,0.0,95,0.00,,,0.00,weatherlink.com 1.10,2013-03-10 14:09:00,
2013-03-10 07:24:00,36.5,35.0,30.29,SW,214,0.0,0.0,95,0.00,,,0.00,weatherlink.com 1.10,2013-03-10 14:24:00,
2013-03-10 07:39:00,36.1,35.0,30.29,SW,214,0.0,0.0,95,0.00,,,0.00,weatherlink.com 1.10,2013-03-10 14:39:00,
2013-03-10 07:54:00,36.6,36.0,30.29,SW,214,0.0,0.0,96,0.00,,,0.00,weatherlink.com 1.10,2013-03-10 14:54:00,
2013-03-10 08:09:00,37.3,36.0,30.29,SW,214,0.0,0.0,96,0.00,,,0.00,weatherlink.com 1.10,2013-03-10 15:09:00,
2013-03-10 08:24:00,38.7,38.0,30.30,SW,214,0.0,0.0,96,0.00,,,0.00,weatherlink.com 1.10,2013-03-10 15:24:00,
2013-03-10 08:39:00,40.5,40.0,30.31,SW,214,0.0,0.0,96,0.00,,,0.00,weatherlink.com 1.10,2013-03-10 15:39:00,
2013-03-10 08:55:00,42.0,40.0,30.31,SSW,209,0.0,1.0,92,0.00,,,0.00,weatherlink.com 1.10,2013-03-10 15:55:00,
2013-03-10 09:10:00,43.7,41.0,30.31,SSE,166,0.0,0.0,89,0.00,,,0.00,weatherlink.com 1.10,2013-03-10 16:10:00,
2013-03-10 09:25:00,45.0,42.0,30.31,SSE,166,0.0,0.0,88,0.00,,,0.00,weatherlink.com 1.10,2013-03-10 16:25:00,
2013-03-10 09:40:00,47.0,43.0,30.31,South,181,0.0,1.0,85,0.00,,,0.00,weatherlink.com 1.10,2013-03-10 16:40:00,
2013-03-10 09:55:00,48.8,43.0,30.31,SSW,203,0.0,1.0,80,0.00,,,0.00,weatherlink.com 1.10,2013-03-10 16:55:00,
2013-03-10 10:10:00,50.5,44.0,30.31,SSW,202,0.0,0.0,77,0.00,,,0.00,weatherlink.com 1.10,2013-03-10 17:10:00,
2013-03-10 10:25:00,52.1,45.0,30.30,SE,143,0.0,0.0,76,0.00,,,0.00,weatherlink.com 1.10,2013-03-10 17:25:00,
2013-03-10 10:40:00,54.6,47.0,30.30,WSW,239,0.0,2.0,75,0.00,,,0.00,weatherlink.com 1.10,2013-03-10 17:40:00,
2013-03-10 10:55:00,56.8,47.0,30.30,SSW,193,0.0,1.0,70,0.00,,,0.00,weatherlink.com 1.10,2013-03-10 17:55:00,
2013-03-10 11:10:00,58.3,47.0,30.30,SW,223,0.0,2.0,66,0.00,,,0.00,weatherlink.com 1.10,2013-03-10 18:10:00,
2013-03-10 11:25:00,58.6,46.0,30.30,East,98,1.0,1.0,64,0.00,,,0.00,weatherlink.com 1.10,2013-03-10 18:25:00,
2013-03-10 11:40:00,61.0,46.0,30.29,NNE,32,0.0,1.0,59,0.00,,,0.00,weatherlink.com 1.10,2013-03-10 18:40:00,
2013-03-10 11:55:00,63.3,45.0,30.29,South,174,0.0,1.0,52,0.00,,,0.00,weatherlink.com 1.10,2013-03-10 18:55:00,
2013-03-10 12:10:00,65.3,41.0,30.28,East,98,0.0,2.0,42,0.00,,,0.00,weatherlink.com 1.10,2013-03-10 19:10:00,
2013-03-10 12:25:00,66.6,44.0,30.27,SSW,212,0.0,2.0,44,0.00,,,0.00,weatherlink.com 1.10,2013-03-10 19:25:00,
2013-03-10 12:41:00,68.2,42.0,30.27,South,169,1.0,2.0,39,0.00,,,0.00,weatherlink.com 1.10,2013-03-10 19:41:00,
2013-03-10 12:56:00,69.5,41.0,30.27,SSW,205,0.0,2.0,36,0.00,,,0.00,weatherlink.com 1.10,2013-03-10 19:56:00,
2013-03-10 13:11:00,69.6,41.0,30.26,SW,227,0.0,1.0,36,0.00,,,0.00,weatherlink.com 1.10,2013-03-10 20:11:00,
2013-03-10 13:26:00,70.8,40.0,30.26,SW,234,0.0,5.0,33,0.00,,,0.00,weatherlink.com 1.10,2013-03-10 20:26:00,
2013-03-10 13:56:00,72.0,43.0,30.24,East,84,0.0,3.0,35,0.00,,,0.00,weatherlink.com 1.10,2013-03-10 20:56:00,
2013-03-10 14:56:00,74.0,45.0,30.22,South,181,0.0,2.0,35,0.00,,,0.00,weatherlink.com 1.10,2013-03-10 21:56:00,
2013-03-10 15:26:00,73.9,41.0,30.23,SSE,151,2.0,3.0,30,0.00,,,0.00,weatherlink.com 1.10,2013-03-10 22:26:00,
2013-03-10 15:41:00,74.4,41.0,30.22,South,172,0.0,1.0,30,0.00,,,0.00,weatherlink.com 1.10,2013-03-10 22:41:00,
2013-03-10 15:56:00,74.0,41.0,30.22,West,281,0.0,2.0,31,0.00,,,0.00,weatherlink.com 1.10,2013-03-10 22:56:00,
2013-03-10 16:11:00,74.2,41.0,30.21,South,184,0.0,4.0,30,0.00,,,0.00,weatherlink.com 1.10,2013-03-10 23:11:00,
2013-03-10 16:26:00,73.4,42.0,30.21,SW,222,1.0,4.0,32,0.00,,,0.00,weatherlink.com 1.10,2013-03-10 23:26:00,
2013-03-10 16:41:00,71.5,38.0,30.21,SE,127,1.0,6.0,30,0.00,,,0.00,weatherlink.com 1.10,2013-03-10 23:41:00,
2013-03-10 17:11:00,70.0,36.0,30.21,SE,125,0.0,5.0,29,0.00,,,0.00,weatherlink.com 1.10,2013-03-11 00:11:00,
2013-03-10 17:26:00,67.8,34.0,30.21,East,91,0.0,3.0,29,0.00,,,0.00,weatherlink.com 1.10,2013-03-11 00:26:00,
2013-03-10 17:41:00,66.1,34.0,30.20,ENE,66,0.0,2.0,31,0.00,,,0.00,weatherlink.com 1.10,2013-03-11 00:41:00,
2013-03-10 17:56:00,65.0,34.0,30.20,ENE,64,2.0,2.0,32,0.00,,,0.00,weatherlink.com 1.10,2013-03-11 00:56:00,
2013-03-10 18:11:00,64.3,34.0,30.20,NE,46,0.0,3.0,33,0.00,,,0.00,weatherlink.com 1.10,2013-03-11 01:11:00,
2013-03-10 18:57:00,59.1,36.0,30.21,ENE,78,0.0,1.0,43,0.00,,,0.00,weatherlink.com 1.10,2013-03-11 01:57:00,
2013-03-10 19:11:00,59.0,36.0,30.21,North,8,0.0,4.0,43,0.00,,,0.00,weatherlink.com 1.10,2013-03-11 02:11:00,
2013-03-10 19:26:00,57.4,38.0,30.22,NW,310,0.0,3.0,49,0.00,,,0.00,weatherlink.com 1.10,2013-03-11 02:26:00,
2013-03-10 19:41:00,55.2,40.0,30.22,WNW,303,0.0,1.0,57,0.00,,,0.00,weatherlink.com 1.10,2013-03-11 02:41:00,
2013-03-10 19:56:00,53.6,42.0,30.22,SE,127,0.0,2.0,65,0.00,,,0.00,weatherlink.com 1.10,2013-03-11 02:56:00,
2013-03-10 20:11:00,52.2,41.0,30.22,SW,228,0.0,1.0,67,0.00,,,0.00,weatherlink.com 1.10,2013-03-11 03:11:00,
2013-03-10 20:26:00,51.7,41.0,30.22,SW,215,0.0,1.0,66,0.00,,,0.00,weatherlink.com 1.10,2013-03-11 03:26:00,
2013-03-10 20:42:00,49.6,43.0,30.22,SW,215,0.0,1.0,77,0.00,,,0.00,weatherlink.com 1.10,2013-03-11 03:42:00,
2013-03-10 21:12:00,46.7,41.0,30.23,SW,215,0.0,0.0,80,0.00,,,0.00,weatherlink.com 1.10,2013-03-11 04:12:00,
2013-03-10 21:27:00,45.6,40.0,30.23,SW,215,0.0,0.0,82,0.00,,,0.00,weatherlink.com 1.10,2013-03-11 04:27:00,
2013-03-10 21:42:00,44.6,40.0,30.23,SW,215,0.0,0.0,84,0.00,,,0.00,weatherlink.com 1.10,2013-03-11 04:42:00,
2013-03-10 21:57:00,44.1,39.0,30.23,SW,215,0.0,0.0,83,0.00,,,0.00,weatherlink.com 1.10,2013-03-11 04:57:00,
2013-03-10 22:12:00,43.2,39.0,30.23,SW,215,0.0,0.0,85,0.00,,,0.00,weatherlink.com 1.10,2013-03-11 05:12:00,
2013-03-10 22:27:00,42.7,39.0,30.23,SW,215,0.0,0.0,86,0.00,,,0.00,weatherlink.com 1.10,2013-03-11 05:27:00,
2013-03-10 22:57:00,41.8,39.0,30.23,SW,215,0.0,0.0,89,0.00,,,0.00,weatherlink.com 1.10,2013-03-11 05:57:00,
2013-03-10 23:12:00,41.3,39.0,30.23,SW,215,0.0,0.0,90,0.00,,,0.00,weatherlink.com 1.10,2013-03-11 06:12:00,
2013-03-10 23:27:00,40.9,38.0,30.23,SW,215,0.0,0.0,90,0.00,,,0.00,weatherlink.com 1.10,2013-03-11 06:27:00,
2013-03-10 23:42:00,40.4,38.0,30.23,SW,215,0.0,0.0,91,0.00,,,0.00,weatherlink.com 1.10,2013-03-11 06:42:00,
2013-03-10 23:57:00,40.3,38.0,30.23,SW,215,0.0,0.0,91,0.00,,,0.00,weatherlink.com 1.10,2013-03-11 06:57:00,